createdAt,value
2022-09-04T00:02:46.320Z,15.15
2022-09-04T00:05:41.241Z,15.10
2022-09-04T00:08:50.105Z,14.97
2022-09-04T00:11:47.660Z,14.98
2022-09-04T00:14:41.839Z,15.08
2022-09-04T00:17:35.631Z,14.92
2022-09-04T00:20:35.505Z,15.01
2022-09-04T00:23:31.651Z,15.04
2022-09-04T00:26:38.464Z,14.85
2022-09-04T00:29:35.041Z,14.96
2022-09-04T00:32:39.753Z,14.97
2022-09-04T00:35:32.339Z,14.96
2022-09-04T00:38:38.909Z,14.98
2022-09-04T00:41:31.843Z,14.74
2022-09-04T00:44:48.520Z,14.75
2022-09-04T00:47:58.716Z,14.61
2022-09-04T00:51:27.310Z,14.67
2022-09-04T00:54:29.979Z,14.51
2022-09-04T00:57:52.924Z,14.62
2022-09-04T01:00:42.752Z,14.52
2022-09-04T01:04:09.091Z,14.60
2022-09-04T01:07:09.216Z,14.52
2022-09-04T01:10:09.596Z,14.44
2022-09-04T01:13:04.340Z,14.46
2022-09-04T01:15:59.432Z,14.35
2022-09-04T01:18:56.448Z,14.39
2022-09-04T01:22:04.271Z,14.31
2022-09-04T01:25:22.689Z,14.27
2022-09-04T01:28:20.524Z,14.12
2022-09-04T01:31:19.540Z,14.09
2022-09-04T01:34:23.822Z,14.23
2022-09-04T01:37:30.166Z,14.08
2022-09-04T01:40:35.258Z,13.97
2022-09-04T01:43:26.518Z,13.99
2022-09-04T01:46:40.067Z,13.85
2022-09-04T01:49:35.352Z,13.80
2022-09-04T01:52:37.928Z,13.67
2022-09-04T01:55:36.888Z,13.80
2022-09-04T01:58:35.424Z,13.94
2022-09-04T02:01:33.065Z,14.02
2022-09-04T02:04:28.583Z,13.93
2022-09-04T02:07:29.695Z,13.94
2022-09-04T02:10:31.485Z,13.98
2022-09-04T02:13:24.152Z,13.83
2022-09-04T02:16:22.258Z,13.90
2022-09-04T02:19:25.816Z,13.93
2022-09-04T02:22:25.954Z,13.75
2022-09-04T02:25:24.052Z,13.71
2022-09-04T02:28:25.336Z,13.76
2022-09-04T02:31:29.030Z,13.97
2022-09-04T02:34:26.721Z,13.72
2022-09-04T02:37:23.438Z,13.86
2022-09-04T02:40:19.967Z,13.85
2022-09-04T02:43:22.953Z,13.80
2022-09-04T02:46:19.687Z,13.80
2022-09-04T02:49:14.407Z,13.86
2022-09-04T02:52:13.944Z,13.68
2022-09-04T02:55:13.366Z,13.73
2022-09-04T02:58:18.157Z,13.57
2022-09-04T03:01:13.328Z,13.68
2022-09-04T03:04:10.126Z,13.54
2022-09-04T03:07:04.726Z,13.64
2022-09-04T03:10:00.631Z,13.79
2022-09-04T03:12:52.740Z,13.65
2022-09-04T03:15:46.213Z,13.69
2022-09-04T03:18:40.982Z,13.55
2022-09-04T03:21:36.851Z,13.68
2022-09-04T03:24:34.202Z,13.29
2022-09-04T03:27:23.186Z,13.43
2022-09-04T03:30:13.365Z,13.03
2022-09-04T03:33:08.647Z,13.19
2022-09-04T03:36:03.600Z,13.41
2022-09-04T03:39:02.824Z,13.47
2022-09-04T03:41:59.832Z,13.46
2022-09-04T03:45:00.674Z,13.38
2022-09-04T03:48:05.785Z,13.57
2022-09-04T03:50:59.242Z,13.46
2022-09-04T03:54:02.061Z,13.40
2022-09-04T03:57:12.010Z,13.38
2022-09-04T04:00:08.813Z,13.50
2022-09-04T04:03:14.317Z,13.58
2022-09-04T04:06:13.868Z,13.39
2022-09-04T04:09:37.542Z,13.28
2022-09-04T04:12:51.924Z,13.44
2022-09-04T04:15:58.387Z,13.46
2022-09-04T04:19:13.024Z,13.31
2022-09-04T04:22:24.241Z,13.47
2022-09-04T04:25:41.374Z,13.52
2022-09-04T04:28:59.337Z,13.42
2022-09-04T04:32:14.359Z,13.52
2022-09-04T04:35:14.229Z,13.29
2022-09-04T04:38:14.585Z,13.44
2022-09-04T04:41:53.528Z,13.54
2022-09-04T04:45:28.124Z,13.41
2022-09-04T04:48:55.146Z,13.40
2022-09-04T04:52:05.927Z,13.59
2022-09-04T04:55:06.688Z,13.61
2022-09-04T04:58:27.614Z,13.67
2022-09-04T05:01:26.767Z,13.75
2022-09-04T05:04:23.253Z,13.87
2022-09-04T05:07:18.128Z,13.85
2022-09-04T05:10:17.805Z,13.95
2022-09-04T05:13:17.416Z,14.17
2022-09-04T05:16:19.099Z,14.38
2022-09-04T05:19:17.431Z,14.32
2022-09-04T05:22:13.793Z,14.39
2022-09-04T05:25:12.031Z,14.33
2022-09-04T05:28:12.212Z,14.44
2022-09-04T05:31:11.773Z,14.80
2022-09-04T05:34:08.707Z,14.87
2022-09-04T05:37:09.604Z,15.15
2022-09-04T05:40:04.338Z,15.38
2022-09-04T05:43:09.085Z,15.45
2022-09-04T05:46:07.013Z,15.42
2022-09-04T05:49:04.127Z,15.50
2022-09-04T05:52:12.267Z,15.62
2022-09-04T05:55:21.386Z,15.68
2022-09-04T05:58:34.935Z,15.62
2022-09-04T06:01:42.414Z,15.68
2022-09-04T06:05:00.951Z,15.81
2022-09-04T06:08:00.814Z,15.73
2022-09-04T06:11:02.319Z,15.76
2022-09-04T06:14:05.345Z,15.62
2022-09-04T06:17:10.388Z,15.65
2022-09-04T06:20:15.753Z,15.92
2022-09-04T06:23:40.895Z,16.17
2022-09-04T06:26:46.844Z,15.81
2022-09-04T06:30:01.411Z,16.05
2022-09-04T06:33:19.504Z,16.00
2022-09-04T06:36:29.929Z,16.05
2022-09-04T06:39:38.971Z,16.16
2022-09-04T06:42:37.559Z,16.41
2022-09-04T06:45:37.907Z,16.49
2022-09-04T06:48:40.646Z,16.28
2022-09-04T06:51:42.975Z,16.42
2022-09-04T06:54:46.408Z,16.61
2022-09-04T06:58:20.213Z,16.63
2022-09-04T07:01:11.923Z,16.24
2022-09-04T07:04:14.203Z,16.46
2022-09-04T07:07:13.789Z,16.46
2022-09-04T07:10:10.295Z,16.35
2022-09-04T07:13:31.775Z,16.27
2022-09-04T07:16:39.198Z,16.61
2022-09-04T07:20:11.597Z,16.57
2022-09-04T07:23:23.498Z,16.80
2022-09-04T07:26:21.498Z,16.84
2022-09-04T07:29:34.163Z,16.76
2022-09-04T07:32:27.673Z,16.52
2022-09-04T07:35:22.285Z,16.59
2022-09-04T07:38:21.036Z,16.68
2022-09-04T07:41:17.701Z,16.78
2022-09-04T07:44:10.734Z,16.79
2022-09-04T07:47:12.726Z,16.83
2022-09-04T07:50:10.393Z,16.85
2022-09-04T07:53:13.779Z,16.99
2022-09-04T07:56:07.744Z,17.20
2022-09-04T07:59:25.302Z,17.35
2022-09-04T08:02:34.429Z,17.58
2022-09-04T08:05:28.840Z,17.34
2022-09-04T08:08:45.525Z,17.53
2022-09-04T08:11:53.867Z,17.72
2022-09-04T08:14:54.179Z,17.71
2022-09-04T08:18:14.435Z,17.85
2022-09-04T08:21:12.639Z,18.09
2022-09-04T08:24:54.725Z,18.50
2022-09-04T08:28:02.520Z,18.96
2022-09-04T08:30:56.127Z,18.91
2022-09-04T08:34:14.171Z,19.01
2022-09-04T08:37:17.422Z,18.92
2022-09-04T08:40:50.073Z,18.72
2022-09-04T08:44:12.641Z,18.93
2022-09-04T08:47:41.306Z,19.17
2022-09-04T08:51:01.856Z,19.25
2022-09-04T08:54:36.273Z,19.38
2022-09-04T08:57:56.733Z,19.62
2022-09-04T09:01:05.553Z,19.55
2022-09-04T09:04:18.621Z,20.09
2022-09-04T09:07:42.785Z,20.13
2022-09-04T09:11:15.536Z,20.56
2022-09-04T09:14:34.670Z,20.85
2022-09-04T09:17:38.539Z,20.74
2022-09-04T09:20:32.805Z,20.61
2022-09-04T09:23:23.901Z,21.29
2022-09-04T09:26:24.694Z,21.21
2022-09-04T09:29:40.829Z,21.24
2022-09-04T09:33:17.065Z,21.72
2022-09-04T09:36:30.045Z,21.36
2022-09-04T09:39:43.364Z,21.55
2022-09-04T09:43:01.499Z,21.58
2022-09-04T09:46:25.993Z,21.47
2022-09-04T09:49:50.674Z,21.65
2022-09-04T09:53:14.629Z,22.04
2022-09-04T09:56:31.863Z,22.09
2022-09-04T09:59:39.477Z,22.04
2022-09-04T10:03:07.337Z,21.76
2022-09-04T10:06:34.813Z,21.84
2022-09-04T10:10:03.859Z,21.91
2022-09-04T10:13:20.596Z,22.20
2022-09-04T10:16:36.549Z,22.31
2022-09-04T10:19:43.236Z,22.29
2022-09-04T10:22:57.318Z,22.31
2022-09-04T10:26:26.956Z,22.56
2022-09-04T10:29:38.424Z,22.75
2022-09-04T10:33:11.649Z,22.90
2022-09-04T10:36:19.676Z,22.87
2022-09-04T10:39:40.919Z,22.93
2022-09-04T10:42:44.358Z,22.96
2022-09-04T10:45:38.995Z,23.08
2022-09-04T10:49:07.340Z,23.09
2022-09-04T10:52:35.280Z,23.19
2022-09-04T10:55:39.106Z,23.33
2022-09-04T10:58:41.654Z,23.44
2022-09-04T11:01:57.334Z,23.44
2022-09-04T11:05:07.124Z,23.60
2022-09-04T11:08:13.716Z,23.68
2022-09-04T11:11:20.340Z,23.82
2022-09-04T11:14:30.411Z,24.07
2022-09-04T11:17:51.777Z,24.39
2022-09-04T11:21:35.504Z,24.25
2022-09-04T11:25:00.016Z,24.59
2022-09-04T11:28:41.239Z,24.74
2022-09-04T11:31:49.550Z,24.77
2022-09-04T11:35:32.275Z,24.83
2022-09-04T11:38:44.485Z,24.70
2022-09-04T11:41:56.610Z,24.68
2022-09-04T11:45:04.341Z,25.10
2022-09-04T11:48:25.610Z,24.96
2022-09-04T11:51:40.637Z,25.32
2022-09-04T11:54:48.361Z,25.41
2022-09-04T11:57:48.018Z,25.64
2022-09-04T12:00:51.594Z,25.97
2022-09-04T12:04:23.840Z,26.84
2022-09-04T12:07:42.629Z,27.39
2022-09-04T12:10:44.420Z,27.75
2022-09-04T12:13:54.240Z,28.45
2022-09-04T12:17:25.733Z,28.75
2022-09-04T12:20:42.711Z,29.05
2022-09-04T12:23:49.717Z,28.92
2022-09-04T12:26:59.966Z,28.32
2022-09-04T12:30:06.637Z,28.02
2022-09-04T12:33:37.060Z,27.96
2022-09-04T12:36:54.280Z,27.86
2022-09-04T12:40:10.326Z,28.22
2022-09-04T12:43:07.033Z,28.87
2022-09-04T12:46:10.926Z,28.84
2022-09-04T12:49:19.041Z,29.17
2022-09-04T12:52:25.661Z,29.14
2022-09-04T12:55:23.271Z,29.33
2022-09-04T12:58:27.235Z,29.07
2022-09-04T13:01:32.029Z,28.77
2022-09-04T13:04:27.742Z,28.34
2022-09-04T13:07:32.428Z,28.69
2022-09-04T13:10:32.968Z,28.14
2022-09-04T13:13:29.966Z,28.18
2022-09-04T13:16:24.012Z,28.00
2022-09-04T13:19:23.756Z,28.37
2022-09-04T13:22:22.973Z,28.40
2022-09-04T13:25:25.055Z,28.64
2022-09-04T13:28:21.042Z,28.63
2022-09-04T13:31:33.539Z,28.52
2022-09-04T13:34:34.111Z,28.67
2022-09-04T13:37:27.595Z,27.26
2022-09-04T13:40:29.637Z,27.64
2022-09-04T13:43:41.256Z,28.06
2022-09-04T13:46:33.875Z,28.01
2022-09-04T13:49:30.560Z,27.88
2022-09-04T13:52:28.876Z,27.62
2022-09-04T13:55:23.613Z,26.63
2022-09-04T13:58:20.212Z,25.58
2022-09-04T14:01:15.443Z,25.50
2022-09-04T14:04:08.662Z,25.51
2022-09-04T14:07:02.465Z,25.71
2022-09-04T14:09:53.810Z,25.84
2022-09-04T14:13:04.282Z,25.72
2022-09-04T14:16:04.131Z,25.67
2022-09-04T14:19:16.011Z,25.70
2022-09-04T14:22:36.026Z,25.74
2022-09-04T14:25:34.932Z,25.58
2022-09-04T14:28:35.437Z,25.05
2022-09-04T14:31:35.345Z,24.64
2022-09-04T14:34:48.438Z,23.75
2022-09-04T14:37:57.080Z,23.09
2022-09-04T14:40:56.705Z,23.00
2022-09-04T14:44:03.349Z,22.47
2022-09-04T14:46:59.533Z,22.93
2022-09-04T14:49:50.955Z,22.83
2022-09-04T14:52:43.435Z,22.83
2022-09-04T14:55:34.048Z,22.41
2022-09-04T14:58:29.045Z,22.16
2022-09-04T15:01:24.036Z,22.08
2022-09-04T15:04:21.537Z,21.89
2022-09-04T15:07:30.858Z,21.89
2022-09-04T15:10:24.593Z,21.34
2022-09-04T15:13:36.858Z,21.95
2022-09-04T15:16:42.951Z,21.79
2022-09-04T15:19:48.758Z,21.46
2022-09-04T15:22:46.989Z,21.62
2022-09-04T15:25:59.190Z,20.82
2022-09-04T15:28:51.732Z,20.37
2022-09-04T15:31:43.449Z,20.31
2022-09-04T15:34:32.605Z,19.07
2022-09-04T15:37:26.921Z,19.53
2022-09-04T15:40:23.676Z,19.58
2022-09-04T15:43:24.129Z,19.41
2022-09-04T15:46:23.142Z,19.33
2022-09-04T15:49:32.010Z,19.23
2022-09-04T15:52:31.898Z,19.62
2022-09-04T15:55:25.832Z,19.89
2022-09-04T15:58:19.865Z,20.10
2022-09-04T16:01:17.425Z,19.69
2022-09-04T16:04:14.487Z,19.35
2022-09-04T16:07:34.274Z,18.57
2022-09-04T16:10:36.315Z,18.73
2022-09-04T16:13:44.806Z,18.98
2022-09-04T16:16:42.340Z,18.52
2022-09-04T16:19:35.482Z,18.64
2022-09-04T16:22:35.119Z,19.40
2022-09-04T16:25:29.155Z,19.73
2022-09-04T16:28:26.410Z,19.29
2022-09-04T16:31:23.205Z,19.41
2022-09-04T16:34:22.960Z,19.46
2022-09-04T16:37:18.638Z,19.73
2022-09-04T16:40:26.205Z,19.50
2022-09-04T16:43:24.237Z,18.94
2022-09-04T16:46:27.439Z,19.03
2022-09-04T16:49:24.169Z,18.49
2022-09-04T16:52:38.886Z,18.24
2022-09-04T16:55:32.313Z,18.42
2022-09-04T16:58:38.451Z,18.49
2022-09-04T17:01:30.085Z,18.90
2022-09-04T17:04:42.696Z,18.73
2022-09-04T17:07:37.694Z,18.89
2022-09-04T17:10:41.539Z,18.65
2022-09-04T17:13:36.977Z,18.51
2022-09-04T17:16:32.655Z,18.36
2022-09-04T17:19:22.025Z,18.09
2022-09-04T17:29:03.038Z,18.15
2022-09-04T17:29:13.593Z,18.20
2022-09-04T17:33:26.698Z,18.77
2022-09-04T17:40:42.936Z,19.12
2022-09-04T17:40:52.365Z,19.33
2022-09-04T17:42:10.361Z,19.40
2022-09-04T17:45:10.333Z,19.34
2022-09-04T17:48:02.382Z,19.38
2022-09-04T17:50:54.455Z,19.77
2022-09-04T17:53:51.686Z,19.84
2022-09-04T17:56:44.899Z,19.81
2022-09-04T17:59:44.928Z,19.81
2022-09-04T18:02:42.271Z,20.03
2022-09-04T18:05:36.959Z,19.88
2022-09-04T18:08:43.571Z,19.89
2022-09-04T18:11:45.927Z,20.06
2022-09-04T18:15:32.897Z,20.10
2022-09-04T18:18:17.886Z,19.99
2022-09-04T18:21:15.220Z,20.08
2022-09-04T18:24:08.183Z,20.23
2022-09-04T18:27:03.089Z,20.28
2022-09-04T18:33:10.495Z,20.33
2022-09-04T18:37:09.521Z,20.13
2022-09-04T18:37:22.649Z,20.04
2022-09-04T18:39:48.633Z,19.77
2022-09-04T18:50:20.205Z,19.55
2022-09-04T18:50:32.099Z,19.48
2022-09-04T18:50:35.603Z,19.44
2022-09-04T18:52:26.713Z,19.38
2022-09-04T18:55:24.749Z,19.60
2022-09-04T18:58:36.913Z,19.57
2022-09-04T19:01:32.666Z,19.55
2022-09-04T19:04:37.190Z,19.70
2022-09-04T19:07:32.007Z,19.65
2022-09-04T19:10:25.778Z,19.80
2022-09-04T19:13:25.470Z,19.93
2022-09-04T19:16:19.871Z,20.00
2022-09-04T19:19:17.168Z,20.04
2022-09-04T19:22:12.943Z,20.19
2022-09-04T19:25:06.558Z,20.27
2022-09-04T19:28:02.838Z,20.31
2022-09-04T19:30:55.848Z,20.30
2022-09-04T19:33:49.262Z,20.32
2022-09-04T19:36:43.908Z,20.34
2022-09-04T19:45:58.957Z,20.32
2022-09-04T19:46:00.907Z,20.38
2022-09-04T19:46:27.853Z,20.42
2022-09-04T19:51:30.875Z,20.45
2022-09-04T19:53:33.499Z,20.38
2022-09-04T19:55:48.782Z,20.26
2022-09-04T19:58:44.159Z,20.26
2022-09-04T20:01:42.319Z,20.31
2022-09-04T20:04:37.239Z,20.32
2022-09-04T20:07:47.639Z,20.36
2022-09-04T20:10:47.774Z,20.37
2022-09-04T20:13:42.909Z,20.42
2022-09-04T20:16:37.617Z,20.44
2022-09-04T20:19:37.502Z,20.47
2022-09-04T20:22:32.003Z,20.48
2022-09-04T20:25:32.050Z,20.51
2022-09-04T20:28:32.119Z,20.47
2022-09-04T20:31:36.585Z,20.50
2022-09-04T20:34:34.999Z,20.50
2022-09-04T20:37:32.819Z,20.44
2022-09-04T20:40:30.030Z,20.43
2022-09-04T20:43:28.182Z,20.38
2022-09-04T20:52:45.032Z,20.41
2022-09-04T20:52:58.240Z,20.41
2022-09-04T20:53:08.622Z,20.36
2022-09-04T20:56:13.354Z,20.36
2022-09-04T21:03:13.651Z,20.33
2022-09-04T21:03:23.361Z,20.15
2022-09-04T21:06:22.779Z,20.03
2022-09-04T21:09:23.345Z,20.01
2022-09-04T21:12:31.603Z,19.93
2022-09-04T21:15:43.659Z,19.94
2022-09-04T21:19:28.759Z,19.87
2022-09-04T21:22:33.230Z,19.81
2022-09-04T21:25:37.355Z,19.71
2022-09-04T21:28:56.664Z,19.79
2022-09-04T21:32:20.482Z,19.60
2022-09-04T21:35:16.942Z,19.58
2022-09-04T21:38:19.960Z,19.64
2022-09-04T21:41:25.278Z,19.65
2022-09-04T21:44:50.509Z,19.57
2022-09-04T21:48:18.338Z,19.53
2022-09-04T21:51:33.417Z,19.50
2022-09-04T21:58:06.682Z,19.49
2022-09-04T22:02:39.479Z,19.30
2022-09-04T22:02:44.605Z,19.31
2022-09-04T22:05:33.649Z,19.43
2022-09-04T22:13:27.176Z,19.47
2022-09-04T22:13:34.391Z,19.43
2022-09-04T22:15:14.278Z,19.29
2022-09-04T22:18:27.969Z,19.21
2022-09-04T22:21:25.958Z,19.15
2022-09-04T22:24:41.226Z,19.07
2022-09-04T22:28:09.053Z,19.03
2022-09-04T22:31:24.548Z,19.04
2022-09-04T22:34:41.650Z,19.06
2022-09-04T22:38:22.552Z,18.80
2022-09-04T22:41:28.480Z,18.84
2022-09-04T22:44:24.361Z,18.71
2022-09-04T22:47:45.250Z,18.20
2022-09-04T22:50:50.048Z,18.01
2022-09-04T22:54:07.932Z,18.01
2022-09-04T22:57:02.328Z,18.16
2022-09-04T23:00:08.382Z,18.09
2022-09-04T23:03:33.074Z,17.76
2022-09-04T23:12:44.489Z,17.69
2022-09-04T23:13:54.632Z,17.72
2022-09-04T23:14:05.255Z,17.73
2022-09-04T23:17:16.121Z,17.76
2022-09-04T23:23:00.030Z,17.79
2022-09-04T23:26:41.672Z,17.97
2022-09-04T23:27:32.385Z,17.82
2022-09-04T23:30:25.762Z,17.70
2022-09-04T23:33:49.482Z,17.19
2022-09-04T23:36:52.030Z,17.31
2022-09-04T23:40:16.095Z,17.11
2022-09-04T23:43:33.825Z,17.30
2022-09-04T23:46:40.645Z,17.44
2022-09-04T23:49:54.523Z,17.04
2022-09-04T23:53:02.053Z,17.42
2022-09-04T23:56:15.470Z,17.12
2022-09-04T23:59:32.506Z,17.11
